Carrigaline, Ireland
Current Conditions -  °F | °C
As of 10:00 AM on Monday 26 Jan 2015 (Local Time) from EICK Reporting Station
Broken Clouds Broken Clouds  
Wind Chill: 36°   Ceiling: 3200
Heat Index: 43°   Visibility: 6mi
Dew Point: 37°   Wind: 13mph
Humidity: 81%   Direction: 300°WNW
Pressure: 30.39"   Gusts: NA
Location:  51.81°N, 8.39°W
Report Text: EICK 261000Z 30011KT 9999 BKN032 BKN250 06/03 Q1029 NOSIG
Loading
Personal Weather Stations






























Interactive Weather Map New forecast layout! Learn more

10-Day Weather Forecast

Advertisements
Track Severe Weather on mobile